Time;durP1;ratioP1;P1;durP2;ratioP2;P2;SDS_P1;SDS_P2;PMS_P1;PMS_P2;Temp;Humidity;BMP_temperature;BMP_pressure;BME280_temperature;BME280_humidity;BME280_pressure;Samples;Min_cycle;Max_cycle;Signal;HPM_P1;HPM_P2
2022/11/11 00:01:11;;;;;;;10.77;6.78;;;;;;;7.51;100.00;94005.25;5048241;28;20585;-77
2022/11/11 00:03:55;;;;;;;9.80;6.35;;;;;;;7.51;100.00;94001.84;5032373;28;20048;-77
2022/11/11 00:06:39;;;;;;;10.00;6.22;;;;;;;7.49;100.00;94009.91;5055930;28;20075;-77
2022/11/11 00:09:24;;;;;;;10.38;6.40;;;;;;;7.46;100.00;93994.72;5058216;28;20102;-77
2022/11/11 00:12:07;;;;;;;11.23;6.72;;;;;;;7.46;100.00;93999.16;5024567;28;20135;-77
2022/11/11 00:14:51;;;;;;;11.40;7.40;;;;;;;7.43;100.00;93997.81;5051174;28;20531;-77
2022/11/11 00:26:45;;;;;;;12.77;8.07;;;;;;;7.46;100.00;93997.34;5019147;28;20057;-77
2022/11/11 00:29:29;;;;;;;12.68;7.70;;;;;;;7.45;100.00;93994.94;5036375;28;20052;-77
2022/11/11 00:32:22;;;;;;;12.52;7.60;;;;;;;7.42;100.00;94004.03;5050597;28;20068;-77
2022/11/11 00:41:20;;;;;;;12.43;7.38;;;;;;;7.39;100.00;94001.09;5034233;28;20049;-77
2022/11/11 00:44:04;;;;;;;11.15;7.00;;;;;;;7.38;100.00;94004.69;5051488;28;20098;-77
2022/11/11 00:52:53;;;;;;;12.57;5.20;;;;;;;7.37;100.00;93995.31;5046964;28;20115;-77
2022/11/11 00:55:37;;;;;;;8.10;4.93;;;;;;;7.38;100.00;93999.50;5055094;28;20095;-77
2022/11/11 00:58:22;;;;;;;9.35;4.55;;;;;;;7.40;100.00;94003.44;5064246;28;20043;-77
2022/11/11 01:01:06;;;;;;;7.90;3.97;;;;;;;7.39;100.00;94006.31;5047057;28;20048;-77
2022/11/11 01:03:50;;;;;;;6.10;3.78;;;;;;;7.38;100.00;94009.91;5039898;28;20055;-77
2022/11/11 01:06:35;;;;;;;10.48;3.22;;;;;;;7.33;100.00;94007.22;5048945;28;20044;-77
2022/11/11 01:09:19;;;;;;;7.10;2.80;;;;;;;7.31;100.00;94017.84;5050471;28;20067;-76
2022/11/11 01:12:03;;;;;;;4.90;2.63;;;;;;;7.27;100.00;94008.91;5045459;28;20079;-77
2022/11/11 01:14:48;;;;;;;4.85;2.80;;;;;;;7.26;100.00;94004.72;5039537;28;20497;-76
2022/11/11 01:17:32;;;;;;;4.97;3.20;;;;;;;7.27;100.00;94001.09;5031034;28;20103;-77
2022/11/11 01:20:16;;;;;;;5.00;2.45;;;;;;;7.25;100.00;93992.72;5047475;28;20091;-77
2022/11/11 01:23:00;;;;;;;5.88;3.22;;;;;;;7.23;100.00;93998.16;5067629;28;20102;-76
2022/11/11 01:25:45;;;;;;;5.95;2.80;;;;;;;7.21;100.00;93997.59;5054013;28;20055;-76
2022/11/11 01:28:30;;;;;;;3.70;2.10;;;;;;;7.17;100.00;93996.47;5055747;28;20118;-77
2022/11/11 01:31:16;;;;;;;3.75;2.20;;;;;;;7.17;100.00;93993.84;5042044;28;20589;-77
2022/11/11 01:34:00;;;;;;;5.13;2.47;;;;;;;7.16;100.00;94002.69;5054640;28;20411;-76
2022/11/11 01:36:45;;;;;;;4.53;2.30;;;;;;;7.09;100.00;93991.59;5033828;28;20056;-77
2022/11/11 01:39:29;;;;;;;4.45;2.50;;;;;;;7.08;100.00;93998.63;5034775;28;20099;-76
2022/11/11 01:42:13;;;;;;;4.78;2.20;;;;;;;7.05;100.00;93995.69;5044369;28;20092;-77
2022/11/11 01:44:57;;;;;;;4.38;2.35;;;;;;;7.05;100.00;93998.28;5048045;28;20060;-77
2022/11/11 01:50:43;;;;;;;4.32;2.28;;;;;;;7.00;100.00;94004.19;5053953;28;20063;-77
2022/11/11 01:53:28;;;;;;;3.50;2.13;;;;;;;6.97;100.00;94009.03;5037083;28;20552;-77
2022/11/11 01:56:12;;;;;;;3.90;2.20;;;;;;;6.94;100.00;94006.91;5059421;28;20421;-77
2022/11/11 01:59:01;;;;;;;3.65;1.98;;;;;;;6.90;100.00;94003.16;5054504;28;20635;-77
2022/11/11 02:01:46;;;;;;;3.60;2.00;;;;;;;6.86;100.00;94003.59;5040127;28;20156;-76
2022/11/11 02:07:36;;;;;;;5.18;2.17;;;;;;;6.86;100.00;93992.38;5039622;28;20129;-76
2022/11/11 02:10:24;;;;;;;4.85;2.08;;;;;;;6.87;100.00;93989.56;5053180;28;20162;-76
2022/11/11 02:16:15;;;;;;;3.75;1.90;;;;;;;6.85;100.00;93994.19;5053250;28;20067;-76
2022/11/11 02:19:00;;;;;;;3.47;1.90;;;;;;;6.81;100.00;94006.06;5058536;28;20079;-76
2022/11/11 02:21:55;;;;;;;3.60;2.00;;;;;;;6.80;100.00;94003.69;5034338;28;20099;-76
2022/11/11 02:24:41;;;;;;;4.25;2.58;;;;;;;6.79;100.00;93995.09;5051296;28;20524;-76
2022/11/11 02:27:29;;;;;;;3.58;2.00;;;;;;;6.80;100.00;93994.09;5041353;28;20419;-77
2022/11/11 02:30:14;;;;;;;5.07;2.10;;;;;;;6.81;100.00;93995.66;5051388;28;20052;-77
2022/11/11 02:32:58;;;;;;;5.68;2.00;;;;;;;6.81;100.00;93995.66;5053655;28;20094;-77
2022/11/11 02:35:55;;;;;;;3.28;2.00;;;;;;;6.86;100.00;93993.16;5045513;28;20056;-77
2022/11/11 02:38:39;;;;;;;3.30;2.00;;;;;;;6.84;100.00;93992.59;5052510;28;20031;-77
2022/11/11 02:44:26;;;;;;;;;;;;;;;6.80;100.00;93983.69;5034021;28;20076;-77
2022/11/11 02:47:10;;;;;;;3.40;2.00;;;;;;;6.77;100.00;93984.13;5051804;28;19949;-76
2022/11/11 02:49:54;;;;;;;4.68;1.90;;;;;;;6.74;100.00;93989.78;5052084;28;20080;-76
2022/11/11 02:52:38;;;;;;;5.30;2.20;;;;;;;6.71;100.00;93995.44;5051757;28;20721;-77
2022/11/11 02:55:22;;;;;;;6.07;2.13;;;;;;;6.70;100.00;93991.25;5043704;28;20415;-77
2022/11/11 02:58:06;;;;;;;5.80;2.00;;;;;;;6.69;100.00;93992.28;5049692;28;20064;-77
2022/11/11 03:00:50;;;;;;;3.17;1.90;;;;;;;6.66;100.00;93997.91;5044653;28;20537;-77
2022/11/11 03:03:34;;;;;;;3.83;2.13;;;;;;;6.63;100.00;93991.34;5051725;28;20051;-76
2022/11/11 03:06:18;;;;;;;4.35;1.98;;;;;;;6.61;100.00;93997.78;5032177;28;20056;-77
2022/11/11 03:09:03;;;;;;;3.22;1.80;;;;;;;6.58;100.00;93996.44;5041552;28;20135;-77
2022/11/11 03:11:48;;;;;;;3.67;1.80;;;;;;;6.53;100.00;93998.13;5055152;28;20048;-77
2022/11/11 03:14:32;;;;;;;5.63;1.85;;;;;;;6.51;100.00;94005.34;5039959;28;20043;-77
2022/11/11 03:23:22;;;;;;;3.05;1.70;;;;;;;6.47;100.00;94005.00;5032122;28;20053;-77
2022/11/11 03:26:07;;;;;;;4.38;1.75;;;;;;;6.47;100.00;94015.41;5050240;28;20091;-77
2022/11/11 03:28:52;;;;;;;3.05;1.50;;;;;;;6.46;100.00;94012.03;5053488;28;20052;-77
2022/11/11 03:31:36;;;;;;;3.33;1.70;;;;;;;6.47;100.00;94013.59;5050030;28;20051;-77
2022/11/11 03:34:20;;;;;;;4.15;2.13;;;;;;;6.46;100.00;94019.03;5060207;28;20079;-76
2022/11/11 03:40:10;;;;;;;3.00;1.70;;;;;;;6.43;100.00;94024.69;5031226;28;20041;-77
2022/11/11 03:42:54;;;;;;;4.82;1.88;;;;;;;6.40;100.00;94015.50;5056187;28;20044;-76
2022/11/11 03:45:40;;;;;;;2.92;1.77;;;;;;;6.40;100.00;94015.50;5060188;28;20079;-77
2022/11/11 03:48:26;;;;;;;4.00;1.95;;;;;;;6.41;100.00;94024.09;5054113;28;20524;-77
2022/11/11 03:51:10;;;;;;;3.78;2.00;;;;;;;6.41;100.00;94027.50;5051715;28;20097;-77
2022/11/11 03:53:54;;;;;;;5.18;2.60;;;;;;;6.41;100.00;94029.31;5042446;28;20048;-76
2022/11/11 03:56:38;;;;;;;4.72;2.75;;;;;;;6.43;100.00;94035.88;5035318;28;20064;-77
2022/11/11 03:59:22;;;;;;;4.78;2.60;;;;;;;6.44;100.00;94042.69;5045895;28;20039;-76
2022/11/11 04:11:35;;;;;;;5.47;3.03;;;;;;;6.44;100.00;94052.28;5051111;28;19923;-76
2022/11/11 04:17:22;;;;;;;5.18;3.08;;;;;;;6.42;100.00;94052.50;5051363;28;20072;-76
2022/11/11 04:23:10;;;;;;;4.47;2.05;;;;;;;6.38;100.00;94043.56;5031342;28;20121;-77
2022/11/11 04:25:58;;;;;;;3.38;2.03;;;;;;;6.36;100.00;94053.38;5048241;28;20067;-76
2022/11/11 04:34:54;;;;;;;3.40;1.67;;;;;;;6.32;100.00;94057.44;5032899;28;19924;-77
2022/11/11 04:37:50;;;;;;;3.90;1.90;;;;;;;6.31;100.00;94063.66;5048170;28;20590;-76
2022/11/11 04:46:41;;;;;;;3.22;2.05;;;;;;;6.28;100.00;94060.69;5031207;28;19970;-77
2022/11/11 04:49:25;;;;;;;4.22;1.80;;;;;;;6.27;100.00;94054.72;5037256;28;20568;-76
2022/11/11 04:52:27;;;;;;;3.80;1.95;;;;;;;6.24;100.00;94055.94;5051104;28;20047;-77
2022/11/11 04:58:20;;;;;;;2.95;1.63;;;;;;;6.22;100.00;94059.78;5041034;28;20091;-76
2022/11/11 05:01:04;;;;;;;3.00;1.70;;;;;;;6.19;100.00;94070.63;5047949;28;20047;-76
2022/11/11 05:03:49;;;;;;;2.95;1.67;;;;;;;6.14;100.00;94067.88;5044561;28;20044;-75
2022/11/11 05:09:36;;;;;;;3.55;1.92;;;;;;;6.12;100.00;94069.91;5053063;28;20063;-75
2022/11/11 05:12:20;;;;;;;3.92;1.77;;;;;;;6.11;100.00;94069.13;5044314;28;20048;-75
2022/11/11 05:21:30;;;;;;;2.55;1.60;;;;;;;6.12;100.00;94070.69;5052822;28;20499;-75
2022/11/11 05:27:25;;;;;;;2.60;1.50;;;;;;;6.13;100.00;94076.72;5041256;28;20545;-75
2022/11/11 05:30:11;;;;;;;2.45;1.40;;;;;;;6.13;100.00;94074.13;5029641;28;20044;-74
2022/11/11 05:32:55;;;;;;;2.00;1.30;;;;;;;6.12;100.00;94073.28;5041200;28;20044;-74
2022/11/11 05:35:39;;;;;;;2.90;1.45;;;;;;;6.11;100.00;94076.13;5051445;28;20099;-75
2022/11/11 05:38:23;;;;;;;2.28;1.25;;;;;;;6.10;100.00;94077.13;5034466;28;20207;-75
2022/11/11 05:41:08;;;;;;;2.33;1.40;;;;;;;6.10;100.00;94080.50;5049477;28;20041;-74
2022/11/11 05:43:53;;;;;;;2.60;1.45;;;;;;;6.10;100.00;94085.72;5049187;28;20797;-75
2022/11/11 05:46:37;;;;;;;2.55;1.50;;;;;;;6.11;100.00;94089.13;5041320;28;20060;-74
2022/11/11 05:49:21;;;;;;;2.90;1.70;;;;;;;6.10;100.00;94082.34;5052011;28;20087;-75
2022/11/11 05:52:06;;;;;;;3.38;1.50;;;;;;;6.08;100.00;94089.56;5051495;28;20155;-75
2022/11/11 05:54:50;;;;;;;2.88;1.50;;;;;;;6.09;100.00;94096.34;5047295;28;20043;-75
2022/11/11 05:57:35;;;;;;;3.03;1.58;;;;;;;6.07;100.00;94095.78;5044754;28;20048;-75
2022/11/11 06:00:20;;;;;;;3.20;1.70;;;;;;;6.08;100.00;94094.75;5029895;28;20392;-75
2022/11/11 06:03:05;;;;;;;2.67;1.38;;;;;;;6.09;100.00;94097.16;5048151;28;20563;-75
2022/11/11 06:05:49;;;;;;;3.88;1.30;;;;;;;6.07;100.00;94093.19;5051558;28;20048;-74
2022/11/11 06:08:33;;;;;;;2.13;1.40;;;;;;;6.07;100.00;94099.16;5042210;28;20055;-75
2022/11/11 06:11:18;;;;;;;2.63;1.40;;;;;;;6.03;100.00;94098.81;5050103;28;20391;-75
2022/11/11 06:14:02;;;;;;;1.98;1.30;;;;;;;6.02;100.00;94099.81;5044233;28;20083;-74
2022/11/11 06:16:46;;;;;;;3.03;1.50;;;;;;;6.06;100.00;94105.41;5057402;28;20064;-75
2022/11/11 06:19:30;;;;;;;3.05;1.60;;;;;;;6.07;100.00;94099.16;5034045;28;20569;-75
2022/11/11 06:22:54;;;;;;;2.70;1.52;;;;;;;6.10;100.00;94101.31;5037528;28;20094;-76
2022/11/11 06:28:21;;;;;;;2.20;1.40;;;;;;;6.25;100.00;94111.34;5052709;28;20052;-76
2022/11/11 06:31:06;;;;;;;2.70;1.48;;;;;;;6.31;100.00;94110.47;5052000;28;20167;-74
2022/11/11 06:33:50;;;;;;;2.47;1.45;;;;;;;6.39;100.00;94117.19;5050729;28;20051;-75
2022/11/11 06:36:34;;;;;;;3.40;1.55;;;;;;;6.94;100.00;94103.22;5050003;28;20094;-75
2022/11/11 06:39:18;;;;;;;2.00;1.40;;;;;;;7.96;100.00;94102.88;5051749;28;20052;-75
2022/11/11 06:42:02;;;;;;;2.38;1.33;;;;;;;8.73;100.00;94107.72;5052625;28;20097;-75
2022/11/11 06:44:46;;;;;;;3.83;1.60;;;;;;;9.43;100.00;94112.78;5051231;28;20411;-75
2022/11/11 06:47:30;;;;;;;2.97;1.30;;;;;;;10.29;100.00;94104.50;5051953;28;20059;-75
2022/11/11 06:50:15;;;;;;;2.05;1.25;;;;;;;11.06;100.00;94106.09;5031486;28;20060;-75
2022/11/11 06:53:06;;;;;;;2.05;1.40;;;;;;;11.78;100.00;94115.28;5032791;28;20055;-76
2022/11/11 06:55:51;;;;;;;2.25;1.30;;;;;;;12.27;95.16;94098.47;5039865;28;20048;-77
2022/11/11 06:58:35;;;;;;;2.70;1.40;;;;;;;12.79;92.48;94099.41;5032409;28;20211;-77
2022/11/11 07:01:19;;;;;;;2.65;1.58;;;;;;;13.35;86.28;94114.47;5032435;28;20048;-77
2022/11/11 07:04:04;;;;;;;5.35;1.30;;;;;;;13.79;83.06;94104.19;5036170;28;20569;-78
2022/11/11 07:06:48;;;;;;;1.77;1.13;;;;;;;14.50;81.49;94102.38;5046246;28;20753;-79
2022/11/11 07:09:32;;;;;;;1.77;1.10;;;;;;;15.25;76.54;94110.16;5057414;28;20051;-79
2022/11/11 07:12:16;;;;;;;3.45;1.10;;;;;;;15.88;74.39;94098.81;5042856;28;20048;-79
2022/11/11 07:15:00;;;;;;;1.02;0.90;;;;;;;16.45;68.77;94099.75;5048950;28;20136;-79
2022/11/11 07:17:44;;;;;;;1.63;0.95;;;;;;;16.97;65.96;94101.78;5049892;28;20063;-80
2022/11/11 07:20:29;;;;;;;1.42;1.00;;;;;;;17.48;63.37;94111.59;5057594;28;20048;-79
2022/11/11 07:23:14;;;;;;;1.75;0.93;;;;;;;17.72;61.16;94111.47;5057828;28;20055;-79
2022/11/11 07:25:59;;;;;;;5.35;1.10;;;;;;;18.58;57.46;94113.63;5057433;28;20051;-80
2022/11/11 07:28:45;;;;;;;1.20;0.90;;;;;;;19.25;54.83;94114.88;5056639;28;20101;-79
2022/11/11 07:31:29;;;;;;;4.47;0.90;;;;;;;19.25;55.38;94109.56;5056682;28;20106;-80
2022/11/11 07:34:13;;;;;;;4.70;1.88;;;;;;;19.04;54.00;94117.22;5057629;28;20052;-80
2022/11/11 07:36:58;;;;;;;5.95;1.30;;;;;;;20.12;50.67;94110.91;5057205;28;20091;-80
2022/11/11 07:39:42;;;;;;;6.07;1.70;;;;;;;21.34;49.73;94108.53;5057381;28;20063;-80
2022/11/11 07:42:26;;;;;;;4.95;1.80;;;;;;;21.27;48.06;94105.56;5059146;28;20048;-81
2022/11/11 07:45:11;;;;;;;2.22;1.27;;;;;;;21.53;45.08;94102.94;5060575;28;20121;-80
2022/11/11 07:47:56;;;;;;;3.58;1.30;;;;;;;21.49;46.99;94103.88;5056847;28;20087;-80
2022/11/11 07:50:40;;;;;;;1.98;1.30;;;;;;;21.08;45.11;94100.56;5057300;28;20104;-80
2022/11/11 07:53:27;;;;;;;2.33;1.20;;;;;;;20.59;47.84;94095.31;5058404;28;20167;-80
2022/11/11 07:56:11;;;;;;;2.60;1.30;;;;;;;20.82;47.70;94092.53;5058132;28;20609;-80
2022/11/11 07:58:54;;;;;;;2.55;1.40;;;;;;;20.70;47.50;94089.72;5042789;28;20043;-80
2022/11/11 08:01:38;;;;;;;1.73;1.20;;;;;;;21.19;47.19;94087.72;5028883;28;20048;-80
2022/11/11 08:04:22;;;;;;;2.55;1.42;;;;;;;22.15;45.44;94092.91;5056445;28;20084;-81
2022/11/11 08:07:07;;;;;;;3.20;1.50;;;;;;;23.09;44.59;94092.75;5058152;28;20048;-80
2022/11/11 08:09:51;;;;;;;2.28;1.40;;;;;;;23.63;41.13;94098.13;5043074;28;20067;-81
2022/11/11 08:15:38;;;;;;;3.53;1.60;;;;;;;24.59;41.87;94099.81;5057272;28;20048;-80
2022/11/11 08:18:22;;;;;;;3.90;1.85;;;;;;;23.40;43.04;94104.94;5042384;28;20087;-80
2022/11/11 08:21:07;;;;;;;4.10;2.03;;;;;;;22.02;45.37;94119.47;5056347;28;20110;-80
2022/11/11 08:23:51;;;;;;;3.63;1.90;;;;;;;21.26;46.97;94112.00;5055631;28;20136;-80
2022/11/11 08:26:35;;;;;;;6.18;2.47;;;;;;;20.77;50.24;94106.00;5055972;28;20103;-80
2022/11/11 08:29:20;;;;;;;4.45;2.10;;;;;;;20.77;51.29;94100.69;5060130;28;20107;-80
2022/11/11 08:32:04;;;;;;;3.80;1.70;;;;;;;20.38;49.08;94105.72;5060792;28;20556;-80
2022/11/11 08:34:49;;;;;;;3.00;1.60;;;;;;;19.10;50.87;94108.06;5060952;28;20075;-80
2022/11/11 08:37:33;;;;;;;3.75;1.95;;;;;;;18.65;53.09;94099.97;5060788;28;20068;-80
2022/11/11 08:40:18;;;;;;;3.50;2.35;;;;;;;18.59;55.92;94103.81;5059777;28;20067;-80
2022/11/11 08:43:02;;;;;;;5.38;1.90;;;;;;;18.46;57.07;94098.22;5060713;28;20056;-80
2022/11/11 08:45:46;;;;;;;3.58;1.85;;;;;;;17.72;57.75;94106.19;5059803;28;20079;-80
2022/11/11 08:48:31;;;;;;;3.92;2.20;;;;;;;17.84;57.50;94113.69;5058517;28;20425;-80
2022/11/11 08:51:15;;;;;;;7.35;2.40;;;;;;;17.26;59.58;94110.31;5059536;28;20051;-80
2022/11/11 08:53:59;;;;;;;4.05;2.25;;;;;;;16.49;61.96;94112.44;5059907;28;20051;-79
2022/11/11 08:56:43;;;;;;;6.22;2.20;;;;;;;16.39;63.61;94105.38;5058254;28;20055;-79
2022/11/11 08:59:28;;;;;;;4.13;2.20;;;;;;;16.14;65.23;94106.47;5059355;28;20044;-80
2022/11/11 09:02:13;;;;;;;5.55;2.10;;;;;;;16.09;64.79;94106.53;5058186;28;20124;-79
2022/11/11 09:04:58;;;;;;;4.35;2.10;;;;;;;16.32;66.15;94100.44;5059528;28;20048;-79
2022/11/11 09:07:42;;;;;;;10.95;2.45;;;;;;;16.37;65.39;94099.59;5058953;28;20072;-79
2022/11/11 09:10:26;;;;;;;4.90;2.45;;;;;;;16.28;63.60;94102.09;5058452;28;20131;-79
2022/11/11 09:13:11;;;;;;;4.68;2.00;;;;;;;16.36;64.72;94104.09;5058688;28;20081;-80
2022/11/11 09:15:55;;;;;;;4.90;2.30;;;;;;;15.83;66.58;94112.06;5059287;28;20071;-79
2022/11/11 09:18:39;;;;;;;4.53;2.50;;;;;;;15.10;69.14;94108.38;5058416;28;20090;-79
2022/11/11 09:21:23;;;;;;;4.80;2.33;;;;;;;14.98;69.43;94107.97;5058441;28;20059;-79
2022/11/11 09:24:07;;;;;;;6.53;2.40;;;;;;;14.91;70.04;94113.53;5058528;28;20044;-79
2022/11/11 09:26:52;;;;;;;7.00;2.38;;;;;;;15.05;68.74;94108.44;5059046;28;20052;-79
2022/11/11 09:29:36;;;;;;;4.60;1.95;;;;;;;14.69;67.20;94098.09;5059431;28;20048;-79
2022/11/11 09:32:21;;;;;;;3.70;1.90;;;;;;;15.31;67.09;94106.41;5058688;28;20102;-79
2022/11/11 09:35:05;;;;;;;4.05;2.10;;;;;;;15.77;66.21;94108.69;5058031;28;20457;-80
2022/11/11 09:37:54;;;;;;;3.67;2.10;;;;;;;15.79;65.83;94108.41;5056467;28;20055;-79
2022/11/11 09:40:59;;;;;;;5.88;2.10;;;;;;;15.36;65.78;94109.00;5036896;28;20044;-79
2022/11/11 09:43:59;;;;;;;3.10;1.63;;;;;;;15.29;66.01;94113.00;5049927;28;20426;-78
2022/11/11 09:46:57;;;;;;;5.35;2.03;;;;;;;15.17;69.33;94113.34;5057650;28;20298;-78
2022/11/11 09:49:50;;;;;;;5.10;2.22;;;;;;;14.75;69.38;94110.19;5056490;28;20048;-78
2022/11/11 09:52:45;;;;;;;3.65;2.05;;;;;;;14.60;71.57;94114.75;5053662;28;20095;-78
2022/11/11 09:55:32;;;;;;;9.15;2.30;;;;;;;14.77;71.42;94112.53;5058466;28;20457;-79
2022/11/11 09:58:20;;;;;;;5.70;2.30;;;;;;;14.66;72.46;94114.47;5058035;28;20060;-78
2022/11/11 10:01:13;;;;;;;6.07;2.70;;;;;;;14.56;74.46;94111.88;5057978;28;20458;-78
2022/11/11 10:04:19;;;;;;;7.70;2.15;;;;;;;14.50;74.01;94107.63;5055876;28;20468;-78
2022/11/11 10:07:11;;;;;;;3.50;2.00;;;;;;;14.68;70.82;94116.81;5052411;28;20083;-79
2022/11/11 10:10:05;;;;;;;5.10;2.23;;;;;;;15.06;71.67;94109.22;5041400;28;20138;-78
2022/11/11 10:12:55;;;;;;;6.65;2.25;;;;;;;15.03;71.28;94115.84;5040736;28;20336;-78
2022/11/11 10:16:06;;;;;;;6.88;2.30;;;;;;;14.74;71.97;94111.25;5041060;28;20052;-78
2022/11/11 10:19:26;;;;;;;5.00;2.40;;;;;;;14.73;73.04;94117.59;5041915;28;20521;-78
2022/11/11 10:22:21;;;;;;;7.38;2.55;;;;;;;14.78;72.46;94108.88;5053626;28;20553;-78
2022/11/11 10:25:32;;;;;;;4.07;2.30;;;;;;;14.85;71.98;94103.28;5055270;28;20083;-78
2022/11/11 10:28:19;;;;;;;4.25;2.22;;;;;;;15.02;70.86;94100.28;5048254;28;20406;-78
2022/11/11 10:31:12;;;;;;;5.40;2.17;;;;;;;14.95;71.27;94106.66;5033925;28;20095;-78
2022/11/11 10:34:09;;;;;;;4.32;2.22;;;;;;;15.28;70.98;94106.94;5034560;28;20120;-78
2022/11/11 10:36:55;;;;;;;3.70;2.00;;;;;;;15.24;68.83;94100.63;5034042;28;20044;-79
2022/11/11 10:40:22;;;;;;;3.80;2.00;;;;;;;15.19;68.27;94090.91;5034826;28;20067;-80
2022/11/11 10:43:24;;;;;;;4.00;2.20;;;;;;;15.08;71.22;94092.06;5034432;28;20144;-78
2022/11/11 10:46:23;;;;;;;2.47;1.48;;;;;;;15.28;70.09;94090.34;5038331;28;20211;-78
2022/11/11 10:49:31;;;;;;;4.32;2.00;;;;;;;15.73;68.41;94093.69;5035638;28;20098;-78
2022/11/11 10:52:18;;;;;;;5.25;1.80;;;;;;;15.80;66.31;94088.84;5035236;28;20107;-79
2022/11/11 10:55:17;;;;;;;3.80;1.98;;;;;;;15.96;64.94;94078.91;5034209;28;20490;-78
2022/11/11 10:58:20;;;;;;;2.58;1.60;;;;;;;15.86;65.85;94084.31;5046729;28;20128;-78
2022/11/11 11:01:08;;;;;;;3.17;2.03;;;;;;;15.80;68.88;94091.50;5055588;28;20568;-78
2022/11/11 11:04:02;;;;;;;2.90;1.63;;;;;;;15.71;66.63;94087.88;5054607;28;20809;-79
2022/11/11 11:06:49;;;;;;;2.58;1.60;;;;;;;15.91;65.47;94084.25;5055131;28;20040;-80
2022/11/11 11:09:47;;;;;;;3.03;1.70;;;;;;;16.18;64.41;94079.19;5040717;28;20775;-78
2022/11/11 11:12:40;;;;;;;4.43;2.20;;;;;;;16.34;65.09;94079.03;5054727;28;20095;-79
2022/11/11 11:15:27;;;;;;;4.97;1.88;;;;;;;16.47;63.98;94078.34;5054916;28;20519;-79
2022/11/11 11:18:13;;;;;;;4.85;2.15;;;;;;;16.56;64.44;94074.00;5054449;28;20727;-78
2022/11/11 11:21:08;;;;;;;4.10;2.10;;;;;;;16.28;65.57;94073.03;5043672;28;20072;-78
2022/11/11 11:23:52;;;;;;;6.60;2.15;;;;;;;16.04;67.00;94078.31;5032460;28;20055;-78
2022/11/11 11:26:45;;;;;;;6.57;3.13;;;;;;;15.69;70.06;94084.72;5033325;28;20415;-78
2022/11/11 11:29:38;;;;;;;5.55;2.90;;;;;;;15.38;71.89;94079.72;5039426;28;20175;-77
2022/11/11 11:32:28;;;;;;;5.80;3.10;;;;;;;15.08;72.29;94073.59;5054228;28;20159;-79
2022/11/11 11:35:31;;;;;;;6.32;3.22;;;;;;;14.99;73.77;94073.41;5047811;28;20045;-79
2022/11/11 11:38:15;;;;;;;5.43;2.92;;;;;;;15.10;72.25;94079.38;5050318;28;20533;-79
2022/11/11 11:40:59;;;;;;;5.22;2.53;;;;;;;15.43;71.72;94077.03;5047000;28;20061;-77
2022/11/11 11:43:44;;;;;;;4.07;2.03;;;;;;;15.30;67.52;94073.16;5053535;28;20043;-77
2022/11/11 11:46:42;;;;;;;3.65;1.77;;;;;;;15.57;70.04;94072.66;5043035;28;20052;-78
2022/11/11 11:49:57;;;;;;;5.95;1.92;;;;;;;15.67;69.49;94069.16;5043324;28;20095;-78
2022/11/11 11:52:54;;;;;;;3.28;1.60;;;;;;;15.38;66.12;94071.81;5053977;28;20051;-78
2022/11/11 11:55:45;;;;;;;3.78;1.98;;;;;;;15.38;69.16;94058.59;5074669;28;20513;-78
2022/11/11 11:59:00;;;;;;;4.00;2.13;;;;;;;15.20;70.32;94066.13;5064109;28;20075;-78
2022/11/11 12:02:12;;;;;;;4.95;2.40;;;;;;;15.09;71.46;94064.63;5050247;28;20063;-79
2022/11/11 12:05:26;;;;;;;10.43;2.25;;;;;;;15.12;72.77;94061.44;5038873;28;20056;-78
2022/11/11 12:08:36;;;;;;;5.82;1.83;;;;;;;14.85;70.48;94066.38;5040222;28;20043;-80
2022/11/11 12:11:44;;;;;;;4.03;2.40;;;;;;;14.90;73.89;94063.69;5049055;28;20048;-79
2022/11/11 12:14:58;;;;;;;2.53;1.45;;;;;;;14.92;68.05;94058.94;5062208;28;20132;-78
2022/11/11 12:18:16;;;;;;;3.47;2.00;;;;;;;14.78;73.32;94051.66;5032014;28;20506;-78
2022/11/11 12:21:12;;;;;;;4.47;2.25;;;;;;;15.04;74.88;94059.41;5050980;28;20064;-78
2022/11/11 12:24:21;;;;;;;4.65;2.40;;;;;;;15.16;73.40;94057.19;5058982;28;20461;-79
2022/11/11 12:27:24;;;;;;;4.22;2.00;;;;;;;14.96;71.56;94058.13;5054080;28;20063;-78
2022/11/11 12:30:08;;;;;;;;;;;;;;;15.06;74.25;94059.09;5052459;28;20410;-79
2022/11/11 12:32:52;;;;;;;4.10;2.20;;;;;;;14.92;75.40;94066.84;5058979;28;19960;-78
2022/11/11 12:35:54;;;;;;;3.80;2.10;;;;;;;14.95;75.43;94061.03;5049581;28;20069;-79
2022/11/11 12:38:38;;;;;;;4.25;2.30;;;;;;;14.93;76.87;94063.19;5033731;28;20099;-79
2022/11/11 12:41:44;;;;;;;7.30;2.45;;;;;;;14.67;76.74;94065.16;5068144;28;20567;-78
2022/11/11 12:45:04;;;;;;;3.72;1.80;;;;;;;14.54;75.35;94063.88;5072286;28;20055;-80
2022/11/11 12:48:13;;;;;;;2.90;1.70;;;;;;;14.65;74.83;94065.44;5061496;28;20044;-78
2022/11/11 12:51:09;;;;;;;3.58;1.80;;;;;;;14.60;76.85;94065.47;5064591;28;20047;-79
2022/11/11 12:54:29;;;;;;;2.28;1.30;;;;;;;14.84;69.76;94065.59;5061472;28;20048;-79
2022/11/11 12:57:37;;;;;;;6.57;2.28;;;;;;;14.95;75.77;94066.31;5064135;28;20055;-79
2022/11/11 13:00:23;;;;;;;3.42;1.80;;;;;;;14.91;72.22;94066.06;5050952;28;20062;-79
2022/11/11 13:03:10;;;;;;;3.55;1.70;;;;;;;14.59;71.32;94069.19;5052589;28;20074;-78
2022/11/11 13:06:13;;;;;;;2.97;1.55;;;;;;;14.78;70.19;94062.19;5052004;28;20067;-79
2022/11/11 13:09:16;;;;;;;3.63;1.50;;;;;;;15.18;70.13;94065.63;5062656;28;20040;-79
2022/11/11 13:12:14;;;;;;;4.50;1.80;;;;;;;15.15;68.47;94060.91;5063359;28;20594;-79
2022/11/11 13:15:02;;;;;;;3.38;1.70;;;;;;;15.29;69.54;94062.88;5063726;28;20525;-79
2022/11/11 13:17:46;;;;;;;3.25;1.80;;;;;;;14.97;69.77;94069.44;5052414;28;20183;-79
2022/11/11 13:20:55;;;;;;;3.97;2.10;;;;;;;14.57;72.03;94068.66;5053255;28;20048;-79
2022/11/11 13:23:39;;;;;;;6.22;2.30;;;;;;;14.41;74.25;94064.47;5060375;28;20086;-79
2022/11/11 13:26:29;;;;;;;4.03;2.10;;;;;;;14.24;76.39;94067.47;5068342;28;20059;-79
2022/11/11 13:29:22;;;;;;;5.88;2.35;;;;;;;14.27;77.47;94072.97;5069181;28;20059;-79
2022/11/11 13:32:11;;;;;;;4.95;2.53;;;;;;;14.09;78.93;94070.94;5044616;28;20127;-79
2022/11/11 13:34:57;;;;;;;4.40;2.60;;;;;;;13.75;80.03;94072.34;5067771;28;20410;-79
2022/11/11 13:37:44;;;;;;;4.78;2.67;;;;;;;13.85;79.73;94068.91;5076606;28;20433;-79
2022/11/11 13:40:41;;;;;;;6.43;3.15;;;;;;;13.69;81.76;94068.16;5076256;28;20552;-79
2022/11/11 13:43:34;;;;;;;4.65;2.75;;;;;;;13.74;81.42;94075.25;5056140;28;20047;-78
2022/11/11 13:46:48;;;;;;;6.72;2.90;;;;;;;13.87;80.80;94072.06;5037629;28;20048;-79
2022/11/11 13:49:41;;;;;;;4.50;2.80;;;;;;;13.94;80.58;94066.53;5058861;28;20536;-79
2022/11/11 13:52:30;;;;;;;6.20;2.72;;;;;;;14.06;80.13;94071.47;5061370;28;20521;-79
2022/11/11 13:55:29;;;;;;;6.97;2.63;;;;;;;14.02;79.10;94070.44;5064973;28;20066;-79
2022/11/11 13:58:24;;;;;;;4.40;2.53;;;;;;;13.98;78.75;94066.75;5061943;28;20112;-79
2022/11/11 14:01:10;;;;;;;5.38;2.90;;;;;;;13.77;79.04;94063.41;5063977;28;20059;-79
2022/11/11 14:04:06;;;;;;;4.53;2.60;;;;;;;13.70;79.97;94068.94;5075980;28;20139;-79
2022/11/11 14:06:52;;;;;;;8.02;2.50;;;;;;;13.58;82.97;94073.69;5049927;28;21022;-78
2022/11/11 14:09:59;;;;;;;5.13;2.33;;;;;;;13.53;79.72;94070.03;5052551;28;20043;-79
2022/11/11 14:12:45;;;;;;;9.35;2.50;;;;;;;13.41;82.18;94066.88;5055959;28;20048;-79
2022/11/11 14:15:42;;;;;;;5.88;2.58;;;;;;;13.42;81.75;94071.09;5048757;28;20048;-78
2022/11/11 14:18:37;;;;;;;3.78;2.20;;;;;;;13.50;80.25;94064.50;5055164;28;20048;-77
2022/11/11 14:21:57;;;;;;;4.50;2.20;;;;;;;13.39;79.86;94066.34;5035501;28;20068;-77
2022/11/11 14:24:46;;;;;;;4.78;1.98;;;;;;;13.25;81.34;94067.91;5058303;28;20047;-77
2022/11/11 14:27:32;;;;;;;4.18;2.42;;;;;;;13.28;81.95;94068.22;5050367;28;20126;-78
2022/11/11 14:30:38;;;;;;;4.43;2.30;;;;;;;12.86;84.28;94071.06;5036953;28;20051;-77
2022/11/11 14:33:40;;;;;;;6.82;3.38;;;;;;;12.70;86.01;94073.66;5044370;28;20052;-77
2022/11/11 14:36:34;;;;;;;3.95;2.40;;;;;;;12.71;87.65;94069.97;5035545;28;20586;-77
2022/11/11 14:39:55;;;;;;;4.53;2.60;;;;;;;12.65;88.52;94073.66;5055979;28;20604;-77
2022/11/11 14:42:43;;;;;;;3.75;2.28;;;;;;;12.60;89.15;94078.09;5052736;28;20052;-77
2022/11/11 14:45:33;;;;;;;5.28;2.50;;;;;;;12.66;88.24;94071.81;5057298;28;20132;-76
2022/11/11 14:48:49;;;;;;;7.10;2.30;;;;;;;12.76;86.51;94071.81;5057761;28;20044;-80
2022/11/11 14:51:54;;;;;;;4.15;2.30;;;;;;;12.81;85.39;94068.41;5047982;28;20102;-78